Arctic Bay — 9HTD8 — position and weather

sailwx.info

Track history (hours):
 
Tides and Currents Weather Stations Pressure Air Temp Water Temp Dewpoint Dewpoint Depression Visibility Wind Speed Wind Dir Waves Ship Positions

Arctic Bay

Last reported at 2017-Jun-17 19:23 UTC. Time now 2017-Jun-26 08:56 UTC.
Position N 09°13' W 079°55'.
Warning: this ship's position is 8 days out of date.

Length 182 m; draft 11.2 m.

Type: Ship. MMSI: 256396000.

Date/timePositionNaut miles runAvg speedWind from/ knotsBaromVisibWave heightAir tempDewpointWater temp
2017-Jun-17 19:23N 09°13' W 079°55'3 8.4
2017-Jun-17 19:00N 09°16' W 079°55'0 0.8
2017-Jun-17 18:29N 09°16' W 079°55'0 0.5
2017-Jun-17 17:55N 09°17' W 079°55'0 0.3
2017-Jun-17 17:30N 09°17' W 079°55'1 1.2
2017-Jun-17 17:00N 09°17' W 079°55'1 2.9
2017-Jun-17 16:30N 09°19' W 079°55'3 5.0
2017-Jun-17 16:00N 09°21' W 079°55'1 1.9
2017-Jun-17 15:22N 09°22' W 079°56'0 0.0
2017-Jun-17 14:58N 09°22' W 079°56'0 0.0
2017-Jun-17 14:28N 09°22' W 079°56'0 0.0
2017-Jun-17 13:28N 09°22' W 079°56'0 0.0
2017-Jun-17 12:58N 09°22' W 079°56'0 0.0
2017-Jun-17 12:28N 09°22' W 079°56'0 0.0
2017-Jun-17 11:58N 09°22' W 079°56'0 0.0
2017-Jun-17 11:28N 09°22' W 079°56'0 0.0
2017-Jun-17 10:58N 09°22' W 079°56'0 0.0
2017-Jun-17 10:28N 09°22' W 079°56'0 0.0
2017-Jun-17 09:58N 09°22' W 079°56'0 0.0
2017-Jun-17 09:28N 09°22' W 079°56'0 0.0
2017-Jun-17 08:55N 09°22' W 079°56'0 0.0
2017-Jun-17 08:25N 09°22' W 079°56'0 0.0
2017-Jun-17 07:55N 09°22' W 079°56'0 0.0
2017-Jun-17 07:28N 09°22' W 079°56'0 0.0
2017-Jun-17 06:58N 09°22' W 079°56'0 0.0
2017-Jun-17 06:28N 09°22' W 079°56'0 0.0
2017-Jun-17 05:58N 09°22' W 079°56'0 0.0
2017-Jun-17 05:28N 09°22' W 079°56'0 0.1
2017-Jun-17 04:58N 09°22' W 079°56'0 0.0
2017-Jun-17 04:16N 09°22' W 079°56'0 0.1
2017-Jun-17 03:58N 09°22' W 079°56'0 0.0
2017-Jun-17 03:28N 09°22' W 079°56'0 0.1
2017-Jun-17 02:58N 09°22' W 079°56'0 0.1
2017-Jun-17 02:28N 09°22' W 079°56'0 0.1
2017-Jun-17 01:58N 09°22' W 079°56'0 0.0
2017-Jun-17 01:25N 09°22' W 079°56'1 1.9
2017-Jun-17 01:01N 09°23' W 079°55'3 5.3
2017-Jun-17 00:31N 09°26' W 079°55'2 4.4
2017-Jun-17 00:00N 09°27' W 079°57'0 0.2
2017-Jun-16 23:30N 09°27' W 079°57'0 0.0
2017-Jun-16 23:00N 09°27' W 079°57'0 0.0
2017-Jun-16 22:30N 09°27' W 079°57'0 0.0
2017-Jun-16 21:54N 09°27' W 079°57'0 0.0
2017-Jun-16 21:30N 09°27' W 079°57'0 0.0
2017-Jun-16 21:00N 09°27' W 079°57'0 0.0
2017-Jun-16 20:27N 09°27' W 079°57'0 0.0
2017-Jun-16 20:00N 09°27' W 079°57'0 0.0
2017-Jun-16 19:24N 09°27' W 079°57'0 0.0
2017-Jun-16 19:00N 09°27' W 079°57'0 0.0
2017-Jun-16 18:30N 09°27' W 079°57'0 0.0
2017-Jun-16 18:00N 09°27' W 079°57'1 1.8
2017-Jun-16 17:30N 09°27' W 079°56'2 4.8
2017-Jun-16 17:00N 09°29' W 079°54'  
Track history (hours):
 
Tides and Currents Weather Stations Pressure Air Temp Water Temp Dewpoint Dewpoint Depression Visibility Wind Speed Wind Dir Waves Ship Positions

Arctic Bay

Last reported at 2017-Jun-17 19:23 UTC. Time now 2017-Jun-26 08:56 UTC.
Position N 09°13' W 079°55'.
Warning: this ship's position is 8 days out of date.

Length 182 m; draft 11.2 m.

Type: Ship. MMSI: 256396000.

Date/timePositionNaut miles runAvg speedWind from/ knotsBaromVisibWave heightAir tempDewpointWater temp
2017-Jun-17 19:23N 09°13' W 079°55'3 8.4
2017-Jun-17 19:00N 09°16' W 079°55'0 0.8
2017-Jun-17 18:29N 09°16' W 079°55'0 0.5
2017-Jun-17 17:55N 09°17' W 079°55'0 0.3
2017-Jun-17 17:30N 09°17' W 079°55'1 1.2
2017-Jun-17 17:00N 09°17' W 079°55'1 2.9
2017-Jun-17 16:30N 09°19' W 079°55'3 5.0
2017-Jun-17 16:00N 09°21' W 079°55'1 1.9
2017-Jun-17 15:22N 09°22' W 079°56'0 0.0
2017-Jun-17 14:58N 09°22' W 079°56'0 0.0
2017-Jun-17 14:28N 09°22' W 079°56'0 0.0
2017-Jun-17 13:28N 09°22' W 079°56'0 0.0
2017-Jun-17 12:58N 09°22' W 079°56'0 0.0
2017-Jun-17 12:28N 09°22' W 079°56'0 0.0
2017-Jun-17 11:58N 09°22' W 079°56'0 0.0
2017-Jun-17 11:28N 09°22' W 079°56'0 0.0
2017-Jun-17 10:58N 09°22' W 079°56'0 0.0
2017-Jun-17 10:28N 09°22' W 079°56'0 0.0
2017-Jun-17 09:58N 09°22' W 079°56'0 0.0
2017-Jun-17 09:28N 09°22' W 079°56'0 0.0
2017-Jun-17 08:55N 09°22' W 079°56'0 0.0
2017-Jun-17 08:25N 09°22' W 079°56'0 0.0
2017-Jun-17 07:55N 09°22' W 079°56'0 0.0
2017-Jun-17 07:28N 09°22' W 079°56'0 0.0
2017-Jun-17 06:58N 09°22' W 079°56'0 0.0
2017-Jun-17 06:28N 09°22' W 079°56'0 0.0
2017-Jun-17 05:58N 09°22' W 079°56'0 0.0
2017-Jun-17 05:28N 09°22' W 079°56'0 0.1
2017-Jun-17 04:58N 09°22' W 079°56'0 0.0
2017-Jun-17 04:16N 09°22' W 079°56'0 0.1
2017-Jun-17 03:58N 09°22' W 079°56'0 0.0
2017-Jun-17 03:28N 09°22' W 079°56'0 0.1
2017-Jun-17 02:58N 09°22' W 079°56'0 0.1
2017-Jun-17 02:28N 09°22' W 079°56'0 0.1
2017-Jun-17 01:58N 09°22' W 079°56'0 0.0
2017-Jun-17 01:25N 09°22' W 079°56'1 1.9
2017-Jun-17 01:01N 09°23' W 079°55'3 5.3
2017-Jun-17 00:31N 09°26' W 079°55'2 4.4
2017-Jun-17 00:00N 09°27' W 079°57'0 0.2
2017-Jun-16 23:30N 09°27' W 079°57'0 0.0
2017-Jun-16 23:00N 09°27' W 079°57'0 0.0
2017-Jun-16 22:30N 09°27' W 079°57'0 0.0
2017-Jun-16 21:54N 09°27' W 079°57'0 0.0
2017-Jun-16 21:30N 09°27' W 079°57'0 0.0
2017-Jun-16 21:00N 09°27' W 079°57'0 0.0
2017-Jun-16 20:27N 09°27' W 079°57'0 0.0
2017-Jun-16 20:00N 09°27' W 079°57'0 0.0
2017-Jun-16 19:24N 09°27' W 079°57'0 0.0
2017-Jun-16 19:00N 09°27' W 079°57'0 0.0
2017-Jun-16 18:30N 09°27' W 079°57'0 0.0
2017-Jun-16 18:00N 09°27' W 079°57'1 1.8
2017-Jun-16 17:30N 09°27' W 079°56'2 4.8
2017-Jun-16 17:00N 09°29' W 079°54'  

Dump ship's entire track history